createdAt,value
2022-09-24T00:05:24.958Z,3.1
2022-09-24T00:11:44.922Z,3.1
2022-09-24T00:18:07.962Z,4.6
2022-09-24T00:24:27.942Z,4.6
2022-09-24T00:30:50.985Z,5.2
2022-09-24T00:37:10.937Z,5.2
2022-09-24T00:43:34.048Z,2.1
2022-09-24T00:49:53.944Z,2.1
2022-09-24T00:56:16.991Z,4.4
2022-09-24T01:02:36.968Z,4.4
2022-09-24T01:08:59.937Z,3.7
2022-09-24T01:15:19.991Z,3.7
2022-09-24T01:21:42.966Z,3.9
2022-09-24T01:28:02.995Z,3.9
2022-09-24T01:34:25.948Z,3.4
2022-09-24T01:40:46.131Z,3.4
2022-09-24T01:47:09.157Z,3.2
2022-09-24T01:53:28.981Z,3.2
2022-09-24T01:59:51.930Z,5.5
2022-09-24T02:06:12.019Z,5.5
2022-09-24T02:12:34.952Z,6.6
2022-09-24T02:18:54.960Z,6.6
2022-09-24T02:25:17.937Z,6.7
2022-09-24T02:31:38.056Z,6.7
2022-09-24T02:38:05.497Z,6.7
2022-09-24T02:44:20.923Z,6.7
2022-09-24T02:50:44.066Z,3
2022-09-24T02:57:03.959Z,3
2022-09-24T03:03:27.043Z,8.3
2022-09-24T03:09:47.014Z,8.3
2022-09-24T03:32:35.815Z,7.9
2022-09-24T03:38:55.883Z,7.9
2022-09-24T03:45:18.907Z,11.8
2022-09-24T03:51:38.915Z,11.8
2022-09-24T03:58:01.903Z,3.3
2022-09-24T04:04:21.898Z,3.3
2022-09-24T04:10:44.935Z,1.9
2022-09-24T04:17:04.986Z,1.9
2022-09-24T04:23:27.908Z,2.9
2022-09-24T04:29:47.931Z,2.9
2022-09-24T04:36:11.001Z,5.4
2022-09-24T04:42:30.926Z,5.4
2022-09-24T04:48:53.976Z,5.5
2022-09-24T04:55:13.905Z,5.5
2022-09-24T05:01:37.089Z,6.1
2022-09-24T05:07:56.977Z,6.1
2022-09-24T05:14:19.925Z,5.1
2022-09-24T05:20:39.941Z,5.1
2022-09-24T05:27:02.927Z,5.5
2022-09-24T05:33:22.985Z,5.5
2022-09-24T05:39:45.911Z,5.7
2022-09-24T05:46:05.977Z,5.7
2022-09-24T05:52:28.917Z,4.4
2022-09-24T05:58:48.885Z,4.4
2022-09-24T06:05:12.010Z,4.3
2022-09-24T06:11:34.332Z,4.3
2022-09-24T06:17:55.134Z,16
2022-09-24T06:24:15.171Z,16
2022-09-24T06:30:37.938Z,6
2022-09-24T06:36:57.967Z,6
2022-09-24T06:43:20.950Z,3.9
2022-09-24T06:49:40.914Z,3.9
2022-09-24T06:56:03.963Z,8.3
2022-09-24T07:02:23.987Z,8.3
2022-09-24T07:08:46.996Z,23.9
2022-09-24T07:15:06.895Z,23.9
2022-09-24T07:21:29.944Z,5.9
2022-09-24T07:27:49.965Z,5.9
2022-09-24T07:34:12.898Z,31
2022-09-24T07:40:33.082Z,31
2022-09-24T07:46:55.950Z,4.7
2022-09-24T07:53:15.888Z,4.7
2022-09-24T07:59:38.983Z,4.4
2022-09-24T08:05:58.888Z,4.4
2022-09-24T08:12:21.928Z,5.5
2022-09-24T08:18:41.939Z,5.5
2022-09-24T08:25:04.895Z,8.9
2022-09-24T08:31:25.003Z,8.9
2022-09-24T08:37:48.065Z,2.9
2022-09-24T08:53:55.582Z,6
2022-09-24T09:00:18.475Z,27.8
2022-09-24T09:06:37.884Z,27.8
2022-09-24T09:13:00.983Z,27.8
2022-09-24T09:19:20.888Z,27.8
2022-09-24T09:25:43.930Z,7.4
2022-09-24T09:32:03.925Z,7.4
2022-09-24T09:38:26.917Z,10.5
2022-09-24T09:44:46.912Z,10.5
2022-09-24T09:51:09.940Z,8.3
2022-09-24T09:57:30.369Z,8.3
2022-09-24T10:03:53.160Z,5.7
2022-09-24T10:10:12.958Z,5.7
2022-09-24T10:16:35.974Z,3.4
2022-09-24T10:22:56.013Z,3.4
2022-09-24T10:29:18.948Z,8.1
2022-09-24T10:35:38.898Z,8.1
2022-09-24T10:42:01.946Z,6.1
2022-09-24T10:48:22.148Z,6.1
2022-09-24T10:54:45.271Z,4.5
2022-09-24T11:01:04.890Z,4.5
2022-09-24T11:07:27.974Z,4.7
2022-09-24T11:13:51.127Z,4.7
2022-09-24T11:20:10.923Z,6.2
2022-09-24T11:26:30.993Z,6.2
2022-09-24T11:32:53.899Z,4.8
2022-09-24T11:39:13.943Z,4.8
2022-09-24T11:45:36.922Z,4.6
2022-09-24T11:51:57.035Z,4.6
2022-09-24T11:58:19.952Z,16.6
2022-09-24T12:04:40.041Z,16.6
2022-09-24T12:11:02.910Z,6
2022-09-24T12:17:22.918Z,6
2022-09-24T12:23:45.971Z,3.7
2022-09-24T12:30:05.900Z,3.7
2022-09-24T12:36:28.960Z,5.3
2022-09-24T12:42:48.941Z,5.3
2022-09-24T12:49:11.909Z,11
2022-09-24T12:55:31.942Z,11
2022-09-24T13:01:55.058Z,21.8
2022-09-24T13:08:16.107Z,21.8
2022-09-24T13:14:38.893Z,4.7
2022-09-24T13:20:59.050Z,4.7
2022-09-24T13:27:21.935Z,10.7
2022-09-24T13:33:41.890Z,10.7
2022-09-24T13:40:04.993Z,19.1
2022-09-24T13:46:24.980Z,19.1
2022-09-24T13:52:47.947Z,6.2
2022-09-24T13:59:08.016Z,6.2
2022-09-24T14:05:30.896Z,11.3
2022-09-24T14:28:55.046Z,27.7
2022-09-24T14:35:14.916Z,27.7
2022-09-24T14:41:37.976Z,12.4
2022-09-24T14:47:57.928Z,12.4
2022-09-24T14:54:20.915Z,21
2022-09-24T15:00:40.968Z,21
2022-09-24T15:07:03.942Z,15.9
2022-09-24T15:13:23.981Z,15.9
2022-09-24T15:19:46.904Z,22.1
2022-09-24T15:26:06.934Z,22.1
2022-09-24T15:32:29.977Z,19.9
2022-09-24T15:38:49.895Z,19.9
2022-09-24T15:45:12.963Z,19.4
2022-09-24T15:51:32.963Z,19.4
2022-09-24T15:57:56.198Z,15
2022-09-24T16:04:16.259Z,15
2022-09-24T16:10:38.885Z,10
2022-09-24T16:16:58.945Z,10
2022-09-24T16:23:21.947Z,10.5
2022-09-24T16:29:41.902Z,10.5
2022-09-24T16:36:04.978Z,13
2022-09-24T16:42:24.911Z,13
2022-09-24T16:48:47.952Z,12.8
2022-09-24T16:55:07.917Z,12.8
2022-09-24T17:01:31.169Z,12.4
2022-09-24T17:07:50.932Z,12.4
2022-09-24T17:14:13.889Z,12.6
2022-09-24T17:20:34.032Z,12.6
2022-09-24T17:26:56.908Z,14.8
2022-09-24T17:33:41.672Z,14.8
2022-09-24T17:39:39.950Z,14.2
2022-09-24T17:46:02.944Z,14.2
2022-09-24T17:52:22.936Z,16.4
2022-09-24T17:58:42.908Z,16.4
2022-09-24T18:05:05.884Z,13.9
2022-09-24T18:11:25.903Z,13.9
2022-09-24T18:17:48.917Z,17.6
2022-09-24T18:24:08.924Z,17.6
2022-09-24T18:30:31.886Z,7.4
2022-09-24T18:36:51.944Z,7.4
2022-09-24T18:43:15.380Z,7.1
2022-09-24T18:49:34.914Z,7.1
2022-09-24T18:55:57.948Z,10.9
2022-09-24T19:02:17.996Z,10.9
2022-09-24T19:08:40.975Z,10.1
2022-09-24T19:15:00.902Z,10.1
2022-09-24T19:21:23.894Z,4.1
2022-09-24T19:27:45.004Z,4.1
2022-09-24T19:51:08.926Z,9.1
2022-09-24T19:57:31.875Z,18.1
2022-09-24T20:03:51.935Z,18.1
2022-09-24T20:10:14.987Z,18.1
2022-09-24T20:16:34.919Z,18.1
2022-09-24T20:22:57.907Z,14.6
2022-09-24T20:29:17.924Z,14.6
2022-09-24T20:35:40.957Z,14.2
2022-09-24T20:42:00.892Z,14.2
2022-09-24T20:48:23.911Z,15.2
2022-09-24T20:54:43.920Z,15.2
2022-09-24T21:01:06.939Z,12.3
2022-09-24T21:07:26.993Z,12.3
2022-09-24T21:13:49.984Z,20.4
2022-09-24T21:20:09.981Z,20.4
2022-09-24T21:26:33.002Z,17.5
2022-09-24T21:32:52.902Z,17.5
2022-09-24T21:39:15.956Z,17.9
2022-09-24T21:45:35.923Z,17.9
2022-09-24T21:51:58.914Z,19.7
2022-09-24T21:58:18.971Z,19.7
2022-09-24T22:22:35.961Z,48
2022-09-24T22:28:55.901Z,48
2022-09-24T22:35:18.938Z,48
2022-09-24T22:41:38.953Z,48
2022-09-24T22:48:01.887Z,38.8
2022-09-24T22:54:21.937Z,38.8
2022-09-24T23:00:44.966Z,27.2
2022-09-24T23:07:05.007Z,27.2
2022-09-24T23:13:27.881Z,23.9
2022-09-24T23:19:47.995Z,23.9
2022-09-24T23:26:14.358Z,24.8
2022-09-24T23:32:30.907Z,24.8
2022-09-24T23:38:54.059Z,33.2
2022-09-24T23:45:13.912Z,33.2
2022-09-24T23:51:36.961Z,46.9
2022-09-24T23:57:56.916Z,46.9
